Brook Danos — WDC8122 — position and weather

sailwx.info

Track history (hours):
 
Tides and Currents Weather Stations Pressure Air Temp Water Temp Dewpoint Dewpoint Depression Visibility Wind Speed Wind Dir Waves Ship Positions

Brook Danos

Owner: Lafourche Tugs Inc., Raceland, LA. More information available from US FCC via Universal Licensing System and Coast Guard Vessel Documentation Center.

Last reported at 2018-Feb-18 01:30 UTC. Time now 2018-Feb-18 01:46 UTC.
Position N 29°41' W 093°44'.

Length 27 m; draft 2.6 m.

Type: Other ship. MMSI: 367081970.

Date/timePositionNaut miles runAvg speedWind from/ knotsBaromVisibWave heightAir tempDewpointWater temp
2018-Feb-18 01:30N 29°41' W 093°44'0 0.0
2018-Feb-18 00:59N 29°41' W 093°44'0 0.0
2018-Feb-18 00:30N 29°41' W 093°44'0 0.0
2018-Feb-18 00:00N 29°41' W 093°44'0 0.0
2018-Feb-17 23:30N 29°41' W 093°44'0 0.0
2018-Feb-17 23:00N 29°41' W 093°44'0 0.0
2018-Feb-17 22:30N 29°41' W 093°44'1 1.6
2018-Feb-17 22:00N 29°41' W 093°43'2 3.9
2018-Feb-17 21:30N 29°42' W 093°41'0 0.0
2018-Feb-17 21:00N 29°42' W 093°41'0 0.0
2018-Feb-17 20:30N 29°42' W 093°41'2 4.6
2018-Feb-17 20:00N 29°41' W 093°43'0 0.0
2018-Feb-17 19:30N 29°41' W 093°43'1 1.7
2018-Feb-17 18:59N 29°41' W 093°44'3 5.7
2018-Feb-17 18:30N 29°42' W 093°41'0 0.0
2018-Feb-17 18:00N 29°42' W 093°41'3 5.6
2018-Feb-17 17:30N 29°41' W 093°44'0 0.0
2018-Feb-17 17:00N 29°41' W 093°44'0 0.0
2018-Feb-17 16:30N 29°41' W 093°44'0 0.0
2018-Feb-17 16:00N 29°41' W 093°44'0 0.0
2018-Feb-17 15:30N 29°41' W 093°44'1 1.7
2018-Feb-17 15:00N 29°41' W 093°43'2 3.2
2018-Feb-17 14:30N 29°41' W 093°45'1 1.8
2018-Feb-17 14:00N 29°41' W 093°44'0 0.0
2018-Feb-17 13:30N 29°41' W 093°44'0 0.0
2018-Feb-17 13:00N 29°41' W 093°44'0 0.0
2018-Feb-17 12:30N 29°41' W 093°44'0 0.0
2018-Feb-17 12:00N 29°41' W 093°44'0 0.0
2018-Feb-17 11:30N 29°41' W 093°44'0 0.0
2018-Feb-17 11:00N 29°41' W 093°44'0 0.0
2018-Feb-17 10:30N 29°41' W 093°44'0 0.0
2018-Feb-17 10:00N 29°41' W 093°44'0 0.0
2018-Feb-17 09:30N 29°41' W 093°44'0 0.0
2018-Feb-17 09:00N 29°41' W 093°44'0 0.0
2018-Feb-17 08:30N 29°41' W 093°44'0 0.0
2018-Feb-17 08:00N 29°41' W 093°44'0 0.0
2018-Feb-17 07:30N 29°41' W 093°44'0 0.0
2018-Feb-17 07:00N 29°41' W 093°44'0 0.0
2018-Feb-17 06:30N 29°41' W 093°44'0 0.0
2018-Feb-17 06:00N 29°41' W 093°44'0 0.0
2018-Feb-17 05:30N 29°41' W 093°44'0 0.0
2018-Feb-17 05:00N 29°41' W 093°44'0 0.0
2018-Feb-17 04:30N 29°41' W 093°44'0 0.0
2018-Feb-17 03:59N 29°41' W 093°44'0 0.0
2018-Feb-17 03:30N 29°41' W 093°44'0 0.0
2018-Feb-17 03:00N 29°41' W 093°44'0 0.0
2018-Feb-17 02:30N 29°41' W 093°44'4 7.3
2018-Feb-17 02:00N 29°39' W 093°47'3 6.3
2018-Feb-17 01:30N 29°41' W 093°50'5 9.2
2018-Feb-17 01:00N 29°45' W 093°53'1 1.4
2018-Feb-17 00:30N 29°46' W 093°53'0 0.0
2018-Feb-17 00:00N 29°46' W 093°53'2 3.2
2018-Feb-16 23:30N 29°44' W 093°53'510.0
2018-Feb-16 23:00N 29°40' W 093°50'3 6.8
2018-Feb-16 22:30N 29°40' W 093°46'4 8.5
2018-Feb-16 22:00N 29°42' W 093°41'0 1.0
2018-Feb-16 21:30N 29°42' W 093°41'0 0.0
2018-Feb-16 21:00N 29°42' W 093°41'0 0.0
2018-Feb-16 20:30N 29°42' W 093°41'0 0.0
2018-Feb-16 20:00N 29°42' W 093°41'0 0.0
2018-Feb-16 19:30N 29°42' W 093°41'3 5.6
2018-Feb-16 19:00N 29°41' W 093°44'0 0.0
2018-Feb-16 18:31N 29°41' W 093°44'2 3.6
2018-Feb-16 18:00N 29°42' W 093°42'1 1.9
2018-Feb-16 17:30N 29°42' W 093°41'0 0.0
2018-Feb-16 17:00N 29°42' W 093°41'0 0.1
2018-Feb-16 16:29N 29°42' W 093°41'0 0.1
2018-Feb-16 16:00N 29°42' W 093°41'3 5.6
2018-Feb-16 15:30N 29°41' W 093°44'1 1.7
2018-Feb-16 15:00N 29°41' W 093°45'1 1.9
2018-Feb-16 14:30N 29°41' W 093°44'4 7.5
2018-Feb-16 13:58N 29°39' W 093°48'3 7.5
2018-Feb-16 13:30N 29°41' W 093°50'5 9.9
2018-Feb-16 13:00N 29°46' W 093°53'0 0.8
2018-Feb-16 12:30N 29°46' W 093°53'0 0.0
2018-Feb-16 12:00N 29°46' W 093°53'2 4.2
2018-Feb-16 11:30N 29°44' W 093°52'4 8.1
2018-Feb-16 11:00N 29°40' W 093°50'3 5.7
2018-Feb-16 10:30N 29°39' W 093°47'3 7.0
2018-Feb-16 10:00N 29°41' W 093°44'0 0.0
2018-Feb-16 09:30N 29°41' W 093°44'0 0.0
2018-Feb-16 08:59N 29°41' W 093°44'0 0.0
2018-Feb-16 08:30N 29°41' W 093°44'0 0.0
2018-Feb-16 08:00N 29°41' W 093°44'0 0.0
2018-Feb-16 07:30N 29°41' W 093°44'0 0.0
2018-Feb-16 06:59N 29°41' W 093°44'0 0.0
2018-Feb-16 06:25N 29°41' W 093°44'0 0.0
2018-Feb-16 06:01N 29°41' W 093°44'0 0.0
2018-Feb-16 05:30N 29°41' W 093°44'0 0.0
2018-Feb-16 05:00N 29°41' W 093°44'0 0.0
2018-Feb-16 04:30N 29°41' W 093°44'0 0.0
2018-Feb-16 04:00N 29°41' W 093°44'0 0.0
2018-Feb-16 03:30N 29°41' W 093°44'0 0.0
2018-Feb-16 03:00N 29°41' W 093°44'0 0.0
2018-Feb-16 02:30N 29°41' W 093°44'0 0.0
2018-Feb-16 02:00N 29°41' W 093°44'0 0.0
2018-Feb-16 01:26N 29°41' W 093°44'0 0.0
2018-Feb-16 00:58N 29°41' W 093°44'0 0.0
2018-Feb-16 00:30N 29°41' W 093°44'0 0.0
2018-Feb-16 00:00N 29°41' W 093°44'0 0.0
2018-Feb-15 23:30N 29°41' W 093°44'0 0.0
2018-Feb-15 23:00N 29°41' W 093°44'0 0.0
2018-Feb-15 22:28N 29°41' W 093°44'0 0.0
2018-Feb-15 22:00N 29°41' W 093°44'0 0.0
2018-Feb-15 21:30N 29°41' W 093°44'3 5.5
2018-Feb-15 21:00N 29°42' W 093°41'0 0.0
2018-Feb-15 20:29N 29°42' W 093°41'0 0.0
2018-Feb-15 20:00N 29°42' W 093°41'5 5.5
2018-Feb-15 19:11N 29°38' W 093°40'0 0.3
2018-Feb-15 19:00N 29°38' W 093°40'3 6.9
2018-Feb-15 18:30N 29°40' W 093°43'1 2.9
2018-Feb-15 18:00N 29°41' W 093°44'0 0.7
2018-Feb-15 17:30N 29°41' W 093°44'0 0.0
2018-Feb-15 17:00N 29°41' W 093°44'1 1.8
2018-Feb-15 16:30N 29°41' W 093°45'0 0.1
2018-Feb-15 16:00N 29°41' W 093°45'1 2.0
2018-Feb-15 15:30N 29°41' W 093°44'1 2.0
2018-Feb-15 15:00N 29°41' W 093°45'1 1.4
2018-Feb-15 14:30N 29°41' W 093°44'3 5.9
2018-Feb-15 14:00N 29°42' W 093°41'3 5.1
2018-Feb-15 13:30N 29°41' W 093°44'0 0.4
2018-Feb-15 13:00N 29°41' W 093°44'0 0.0
2018-Feb-15 12:30N 29°41' W 093°44'0 0.0
2018-Feb-15 12:00N 29°41' W 093°44'0 0.0
2018-Feb-15 11:30N 29°41' W 093°44'0 0.0
2018-Feb-15 11:00N 29°41' W 093°44'0 0.0
2018-Feb-15 10:30N 29°41' W 093°44'0 0.0
2018-Feb-15 10:00N 29°41' W 093°44'0 0.0
2018-Feb-15 09:27N 29°41' W 093°44'0 0.0
2018-Feb-15 09:00N 29°41' W 093°44'0 0.0
2018-Feb-15 08:30N 29°41' W 093°44'0 0.0
2018-Feb-15 08:00N 29°41' W 093°44'0 0.0
2018-Feb-15 07:30N 29°41' W 093°44'0 0.0
2018-Feb-15 07:00N 29°41' W 093°44'0 0.0
2018-Feb-15 06:30N 29°41' W 093°44'0 0.0
2018-Feb-15 06:00N 29°41' W 093°44'0 0.0
2018-Feb-15 05:30N 29°41' W 093°44'0 0.0
2018-Feb-15 05:00N 29°41' W 093°44'0 0.0
2018-Feb-15 04:30N 29°41' W 093°44'0 0.0
2018-Feb-15 04:00N 29°41' W 093°44'0 0.0
2018-Feb-15 03:30N 29°41' W 093°44'0 0.0
2018-Feb-15 03:00N 29°41' W 093°44'1 1.8
2018-Feb-15 02:30N 29°41' W 093°45'0 0.0
2018-Feb-15 02:00N 29°41' W 093°45'0 0.0
2018-Feb-15 01:30N 29°41' W 093°45'1 1.8
2018-Feb-15 01:00N 29°41' W 093°44'0 0.0
2018-Feb-15 00:30N 29°41' W 093°44'0 0.9
2018-Feb-15 00:00N 29°41' W 093°44'1 1.5
2018-Feb-14 23:30N 29°41' W 093°43'2 4.8
2018-Feb-14 23:00N 29°42' W 093°41'0 0.0
2018-Feb-14 22:30N 29°42' W 093°41'0 0.0
2018-Feb-14 21:59N 29°42' W 093°41'0 0.0
2018-Feb-14 21:30N 29°42' W 093°41'0 0.0
2018-Feb-14 21:00N 29°42' W 093°41'0 0.0
2018-Feb-14 20:30N 29°42' W 093°41'2 3.7
2018-Feb-14 20:00N 29°42' W 093°43'1 1.9
2018-Feb-14 19:30N 29°41' W 093°44'4 7.3
2018-Feb-14 19:00N 29°39' W 093°47'3 6.8
2018-Feb-14 18:30N 29°42' W 093°50'5 9.7
2018-Feb-14 18:00N 29°46' W 093°53'0 0.5
2018-Feb-14 17:30N 29°46' W 093°53'0 0.0
2018-Feb-14 17:00N 29°46' W 093°53'0 0.0
2018-Feb-14 16:30N 29°46' W 093°53'1 1.5
2018-Feb-14 16:00N 29°45' W 093°53'3 6.7
2018-Feb-14 15:30N 29°42' W 093°51'3 6.5
2018-Feb-14 15:00N 29°39' W 093°50'3 6.4
2018-Feb-14 14:30N 29°40' W 093°46'2 3.5
2018-Feb-14 14:00N 29°41' W 093°45'1 1.8
2018-Feb-14 13:30N 29°40' W 093°45'4 8.2
2018-Feb-14 13:00N 29°39' W 093°50'611.1
2018-Feb-14 12:30N 29°44' W 093°52'2 4.8
2018-Feb-14 12:00N 29°46' W 093°53'1 1.9
2018-Feb-14 11:31N 29°45' W 093°53'4 7.7
2018-Feb-14 11:00N 29°42' W 093°51'4 7.8
2018-Feb-14 10:30N 29°38' W 093°49'5 9.6
2018-Feb-14 10:00N 29°41' W 093°44'1 1.0
2018-Feb-14 09:30N 29°41' W 093°44'0 0.0
2018-Feb-14 09:00N 29°41' W 093°44'0 0.0
2018-Feb-14 08:30N 29°41' W 093°44'0 0.0
2018-Feb-14 08:00N 29°41' W 093°44'0 0.0
2018-Feb-14 07:30N 29°41' W 093°44'0 0.0
2018-Feb-14 06:54N 29°41' W 093°44'0 0.0
2018-Feb-14 06:30N 29°41' W 093°44'0 0.0
2018-Feb-14 06:00N 29°41' W 093°44'0 0.0
2018-Feb-14 05:30N 29°41' W 093°44'1 1.8
2018-Feb-14 05:00N 29°41' W 093°45'1 1.9
2018-Feb-14 04:30N 29°41' W 093°44'0 0.0
2018-Feb-14 04:00N 29°41' W 093°44'0 0.0
2018-Feb-14 03:30N 29°41' W 093°44'0 0.0
2018-Feb-14 03:00N 29°41' W 093°44'0 0.0
2018-Feb-14 02:30N 29°41' W 093°44'1 1.8
2018-Feb-14 02:00N 29°41' W 093°45'1 1.7
2018-Feb-14 01:30N 29°41' W 093°44'4 8.9
2018-Feb-14 01:00N 29°39' W 093°48'3 6.9
2018-Feb-14 00:30N 29°42' W 093°51'4 8.7
2018-Feb-14 00:00N 29°45' W 093°53'1 1.2
2018-Feb-13 23:30N 29°46' W 093°53'0 0.0
2018-Feb-13 23:00N 29°46' W 093°53'0 0.0
2018-Feb-13 22:30N 29°46' W 093°53'0 0.0
2018-Feb-13 22:00N 29°46' W 093°53'0 0.0
2018-Feb-13 21:30N 29°46' W 093°53'4 7.3
2018-Feb-13 21:00N 29°43' W 093°51'4 8.8
2018-Feb-13 20:30N 29°39' W 093°49'5 9.4
2018-Feb-13 20:00N 29°41' W 093°44'1 1.6
2018-Feb-13 19:30N 29°41' W 093°45'1 1.6
2018-Feb-13 19:00N 29°41' W 093°44'0 0.0
2018-Feb-13 18:30N 29°41' W 093°44'0 0.0
2018-Feb-13 18:00N 29°41' W 093°44'0 0.0
2018-Feb-13 17:30N 29°41' W 093°44'3 5.5
2018-Feb-13 17:00N 29°42' W 093°41'0 0.1
2018-Feb-13 16:30N 29°42' W 093°41'1 2.1
2018-Feb-13 16:01N 29°42' W 093°42'0 0.8
2018-Feb-13 15:30N 29°41' W 093°42'1 2.5
2018-Feb-13 15:00N 29°42' W 093°41'4 8.1
2018-Feb-13 14:30N 29°38' W 093°40'1 1.1
2018-Feb-13 14:00N 29°38' W 093°41'4 8.9
2018-Feb-13 13:30N 29°41' W 093°44'1 1.2
2018-Feb-13 13:00N 29°41' W 093°45'1 1.9
2018-Feb-13 12:30N 29°41' W 093°44'0 0.0
2018-Feb-13 12:00N 29°41' W 093°44'0 0.0
2018-Feb-13 11:30N 29°41' W 093°44'0 0.0
2018-Feb-13 11:00N 29°41' W 093°44'0 0.0
2018-Feb-13 10:30N 29°41' W 093°44'0 0.0
2018-Feb-13 10:01N 29°41' W 093°44'0 0.0
2018-Feb-13 09:30N 29°41' W 093°44'0 0.0
2018-Feb-13 09:00N 29°41' W 093°44'0 0.0
2018-Feb-13 08:30N 29°41' W 093°44'0 0.0
2018-Feb-13 08:00N 29°41' W 093°44'0 0.0
2018-Feb-13 07:30N 29°41' W 093°44'0 0.0
2018-Feb-13 07:00N 29°41' W 093°44'0 0.0
2018-Feb-13 06:30N 29°41' W 093°44'0 0.0
2018-Feb-13 06:00N 29°41' W 093°44'0 0.0
2018-Feb-13 05:30N 29°41' W 093°44'0 0.0
2018-Feb-13 05:00N 29°41' W 093°44'0 0.0
2018-Feb-13 04:30N 29°41' W 093°44'0 0.0
2018-Feb-13 04:00N 29°41' W 093°44'0 0.0
2018-Feb-13 03:30N 29°41' W 093°44'0 0.0
2018-Feb-13 03:00N 29°41' W 093°44'0 0.0
2018-Feb-13 02:30N 29°41' W 093°44'0 0.0
2018-Feb-13 02:00N 29°41' W 093°44'0 0.0
2018-Feb-13 01:30N 29°41' W 093°44'0 0.5
2018-Feb-13 00:59N 29°41' W 093°44'1 2.8
2018-Feb-13 00:30N 29°42' W 093°42'2 3.3
2018-Feb-13 00:00N 29°41' W 093°44'0 0.0
2018-Feb-12 23:30N 29°41' W 093°44'0 0.0
2018-Feb-12 23:01N 29°41' W 093°44'0 0.0
2018-Feb-12 22:30N 29°41' W 093°44'0 0.0
2018-Feb-12 22:00N 29°41' W 093°44'1 1.8
2018-Feb-12 21:30N 29°41' W 093°45'1 1.8
2018-Feb-12 21:01N 29°41' W 093°44'0 0.0
2018-Feb-12 20:31N 29°41' W 093°44'0 0.0
2018-Feb-12 20:00N 29°41' W 093°44'0 0.0
2018-Feb-12 19:31N 29°41' W 093°44'0 0.0
2018-Feb-12 19:00N 29°41' W 093°44'0 0.0
2018-Feb-12 18:30N 29°41' W 093°44'0 0.0
2018-Feb-12 18:00N 29°41' W 093°44'0 0.0
2018-Feb-12 17:31N 29°41' W 093°44'0 0.0
2018-Feb-12 16:59N 29°41' W 093°44'1 1.9
2018-Feb-12 16:31N 29°41' W 093°45'4 7.3
2018-Feb-12 16:00N 29°42' W 093°41'3 6.9
2018-Feb-12 15:30N 29°39' W 093°41'1 1.1
2018-Feb-12 15:00N 29°39' W 093°41'3 6.0
2018-Feb-12 14:30N 29°42' W 093°41'0 0.0
2018-Feb-12 14:00N 29°42' W 093°41'2 3.4
2018-Feb-12 13:30N 29°41' W 093°43'2 3.0
2018-Feb-12 12:57N 29°42' W 093°41'2 2.9
2018-Feb-12 12:23N 29°41' W 093°43'1 3.3
2018-Feb-12 12:00N 29°41' W 093°44'3 5.9
2018-Feb-12 11:30N 29°42' W 093°41'2 4.0
2018-Feb-12 10:59N 29°41' W 093°43'1 1.3
2018-Feb-12 10:30N 29°42' W 093°42'0 0.5
2018-Feb-12 10:00N 29°42' W 093°43'1 2.2
2018-Feb-12 09:30N 29°41' W 093°44'0 0.0
2018-Feb-12 09:00N 29°41' W 093°44'0 0.0
2018-Feb-12 08:30N 29°41' W 093°44'0 0.0
2018-Feb-12 08:00N 29°41' W 093°44'0 0.0
2018-Feb-12 07:27N 29°41' W 093°44'0 0.0
2018-Feb-12 07:00N 29°41' W 093°44'0 0.0
2018-Feb-12 06:31N 29°41' W 093°44'0 0.0
2018-Feb-12 06:00N 29°41' W 093°44'0 0.1
2018-Feb-12 05:30N 29°41' W 093°44'0 0.1
2018-Feb-12 04:59N 29°41' W 093°44'0 0.0
2018-Feb-12 04:29N 29°41' W 093°44'0 0.0
2018-Feb-12 04:00N 29°41' W 093°44'0 0.0
2018-Feb-12 03:29N 29°41' W 093°44'0 0.0
2018-Feb-12 02:58N 29°41' W 093°44'0 0.0
2018-Feb-12 02:27N 29°41' W 093°44'0 0.0
2018-Feb-12 01:58N 29°41' W 093°44'0 0.0
2018-Feb-12 01:30N 29°41' W 093°44'0 0.0
2018-Feb-12 01:00N 29°41' W 093°44'0 0.0
2018-Feb-12 00:30N 29°41' W 093°44'0 0.0
2018-Feb-12 00:00N 29°41' W 093°44'0 0.0
2018-Feb-11 23:26N 29°41' W 093°44'1 1.5
2018-Feb-11 22:58N 29°41' W 093°45'4 9.0
2018-Feb-11 22:30N 29°39' W 093°49'4 9.0
2018-Feb-11 22:00N 29°43' W 093°51'4 7.2
2018-Feb-11 21:30N 29°46' W 093°53'0 0.0
2018-Feb-11 21:00N 29°46' W 093°53'0 0.0
2018-Feb-11 20:26N 29°46' W 093°53'0 0.0
2018-Feb-11 20:00N 29°46' W 093°53'3 6.5
2018-Feb-11 19:29N 29°43' W 093°51'4 8.4
2018-Feb-11 19:00N 29°39' W 093°50'4 8.6
2018-Feb-11 18:30N 29°40' W 093°45'1 2.4
2018-Feb-11 17:59N 29°41' W 093°44'0 0.0
2018-Feb-11 17:20N 29°41' W 093°44'0 1.2
2018-Feb-11 16:59N 29°41' W 093°44'0 0.9
2018-Feb-11 16:29N 29°41' W 093°44'0 0.0
2018-Feb-11 15:55N 29°41' W 093°44'0 0.1
2018-Feb-11 15:26N 29°41' W 093°44'0 0.0
2018-Feb-11 14:58N 29°41' W 093°44'0 0.0
2018-Feb-11 14:27N 29°41' W 093°44'0 0.0
2018-Feb-11 14:00N 29°41' W 093°44'0 0.0
2018-Feb-11 13:30N 29°41' W 093°44'1 1.8
2018-Feb-11 13:00N 29°41' W 093°45'0 0.0
2018-Feb-11 12:30N 29°41' W 093°45'0 0.0
2018-Feb-11 12:00N 29°41' W 093°45'0 0.0
2018-Feb-11 11:30N 29°41' W 093°45'0 0.0
2018-Feb-11 11:00N 29°41' W 093°45'0 0.0
2018-Feb-11 10:28N 29°41' W 093°45'0 0.0
2018-Feb-11 09:58N 29°41' W 093°45'0 0.0
2018-Feb-11 09:30N 29°41' W 093°45'0 0.0
2018-Feb-11 08:49N 29°41' W 093°45'0 0.0
2018-Feb-11 08:30N 29°41' W 093°45'0 0.0
2018-Feb-11 07:49N 29°41' W 093°45'0 0.0
2018-Feb-11 07:30N 29°41' W 093°45'0 0.0
2018-Feb-11 06:59N 29°41' W 093°45'0 0.0
2018-Feb-11 06:30N 29°41' W 093°45'0 0.0
2018-Feb-11 06:00N 29°41' W 093°45'0 0.0
2018-Feb-11 05:30N 29°41' W 093°45'0 0.0
2018-Feb-11 05:00N 29°41' W 093°45'1 2.0
2018-Feb-11 04:30N 29°41' W 093°44'0 0.0
2018-Feb-11 03:58N 29°41' W 093°44'0 0.0
2018-Feb-11 03:30N 29°41' W 093°44'0 0.0
2018-Feb-11 03:00N 29°41' W 093°44'0 0.0
2018-Feb-11 02:30N 29°41' W 093°44'0 0.0
2018-Feb-11 02:00N 29°41' W 093°44'0 0.0
2018-Feb-11 01:30N 29°41' W 093°44'1 1.7
2018-Feb-11 01:00N 29°41' W 093°45'1 1.5
2018-Feb-11 00:30N 29°41' W 093°44'0 0.0
2018-Feb-11 00:00N 29°41' W 093°44'0 0.0
2018-Feb-10 23:30N 29°41' W 093°44'0 0.0
2018-Feb-10 22:59N 29°41' W 093°44'0 0.0
2018-Feb-10 22:30N 29°41' W 093°44'0 0.0
2018-Feb-10 22:00N 29°41' W 093°44'0 0.6
2018-Feb-10 21:30N 29°41' W 093°44'0 0.6
2018-Feb-10 21:00N 29°41' W 093°44'0 0.0
2018-Feb-10 20:30N 29°41' W 093°44'0 0.0
2018-Feb-10 20:00N 29°41' W 093°44'0 0.0
2018-Feb-10 19:30N 29°41' W 093°44'0 0.1
2018-Feb-10 19:00N 29°41' W 093°44'0 0.1
2018-Feb-10 18:30N 29°41' W 093°44'0 0.1
2018-Feb-10 18:00N 29°41' W 093°44'3 5.4
2018-Feb-10 17:30N 29°42' W 093°41'0 0.0
2018-Feb-10 17:00N 29°42' W 093°41'0 0.0
2018-Feb-10 16:30N 29°42' W 093°41'3 6.0
2018-Feb-10 16:00N 29°41' W 093°44'3 5.9
2018-Feb-10 15:29N 29°39' W 093°47'3 5.8
2018-Feb-10 15:00N 29°41' W 093°50'510.0
2018-Feb-10 14:30N 29°45' W 093°53'1 2.0
2018-Feb-10 14:00N 29°46' W 093°53'1 2.3
2018-Feb-10 13:29N 29°45' W 093°53'4 7.6
2018-Feb-10 13:00N 29°42' W 093°50'3 6.8
2018-Feb-10 12:30N 29°38' W 093°49'4 8.7
2018-Feb-10 12:00N 29°41' W 093°45'0 0.1
2018-Feb-10 11:30N 29°41' W 093°45'0 0.0
2018-Feb-10 10:58N 29°41' W 093°45'0 0.0
2018-Feb-10 10:23N 29°41' W 093°45'0 0.0
2018-Feb-10 10:00N 29°41' W 093°45'0 0.0
2018-Feb-10 09:30N 29°41' W 093°45'0 0.0
2018-Feb-10 09:00N 29°41' W 093°45'0 0.0
2018-Feb-10 08:30N 29°41' W 093°45'0 0.0
2018-Feb-10 08:00N 29°41' W 093°45'0 0.0
2018-Feb-10 07:30N 29°41' W 093°45'0 0.0
2018-Feb-10 07:00N 29°41' W 093°45'0 0.0
2018-Feb-10 06:30N 29°41' W 093°45'0 0.0
2018-Feb-10 06:00N 29°41' W 093°45'0 0.0
2018-Feb-10 05:30N 29°41' W 093°45'0 0.0
2018-Feb-10 05:00N 29°41' W 093°45'0 0.0
2018-Feb-10 04:28N 29°41' W 093°45'0 0.0
2018-Feb-10 04:00N 29°41' W 093°45'0 0.0
2018-Feb-10 03:30N 29°41' W 093°45'0 0.0
2018-Feb-10 01:51N 29°41' W 093°45'0 0.0
2018-Feb-10 01:27N 29°41' W 093°45'0 0.0
2018-Feb-10 00:58N 29°41' W 093°45'0 0.0
2018-Feb-10 00:25N 29°41' W 093°45'1 2.2
2018-Feb-10 00:00N 29°41' W 093°44'0 0.0
2018-Feb-09 23:30N 29°41' W 093°44'0 0.0
2018-Feb-09 23:00N 29°41' W 093°44'0 0.0
2018-Feb-09 22:45N 29°41' W 093°44'0 0.0
2018-Feb-09 20:30N 29°41' W 093°44'0 0.0
2018-Feb-09 20:00N 29°41' W 093°44'0 0.0
2018-Feb-09 19:00N 29°41' W 093°44'0 0.1
2018-Feb-09 18:00N 29°41' W 093°44'0 0.2
2018-Feb-09 17:30N 29°41' W 093°44'1 0.4
2018-Feb-09 15:00N 29°41' W 093°45'1 2.0
2018-Feb-09 14:30N 29°41' W 093°44'5 5.3
2018-Feb-09 13:30N 29°41' W 093°50'510.4
2018-Feb-09 13:00N 29°45' W 093°53'1 1.5
2018-Feb-09 12:30N 29°46' W 093°53'0 0.0
2018-Feb-09 12:00N 29°46' W 093°53'1 0.8
2018-Feb-09 10:30N 29°45' W 093°53'7 7.3
2018-Feb-09 09:30N 29°38' W 093°49'5 9.5
2018-Feb-09 09:00N 29°41' W 093°44'1 1.3
2018-Feb-09 08:30N 29°41' W 093°45'1 0.6
2018-Feb-09 07:00N 29°41' W 093°44'0 0.0
2018-Feb-09 06:00N 29°41' W 093°44'0 0.0
2018-Feb-09 05:30N 29°41' W 093°44'0 0.0
2018-Feb-09 04:30N 29°41' W 093°44'0 0.0
2018-Feb-09 03:30N 29°41' W 093°44'0 0.0
2018-Feb-09 03:00N 29°41' W 093°44'0 0.0
2018-Feb-09 02:30N 29°41' W 093°44'1 1.8
2018-Feb-09 02:00N 29°41' W 093°45'2 3.3
2018-Feb-09 01:30N 29°41' W 093°43'0 0.0
2018-Feb-08 18:30N 29°41' W 093°43'2 3.5
2018-Feb-08 18:00N 29°42' W 093°41'3 2.8
2018-Feb-08 17:00N 29°41' W 093°44'1 0.9
2018-Feb-08 16:00N 29°41' W 093°45'0 0.0
2018-Feb-08 15:30N 29°41' W 093°45'0 0.0
2018-Feb-08 15:00N 29°41' W 093°45'1 0.3
2018-Feb-08 11:30N 29°41' W 093°44'0 0.0
2018-Feb-08 10:00N 29°41' W 093°44'0 0.0
2018-Feb-08 09:30N 29°41' W 093°44'1 0.9
2018-Feb-08 08:30N 29°41' W 093°45'1 1.8
2018-Feb-08 08:00N 29°41' W 093°44'0 0.0
2018-Feb-08 06:00N 29°41' W 093°44'0 0.0
2018-Feb-08 05:30N 29°41' W 093°44'0 0.0
2018-Feb-08 05:00N 29°41' W 093°44'0 0.0
2018-Feb-08 04:00N 29°41' W 093°44'0 0.0
2018-Feb-08 02:30N 29°41' W 093°44'0 0.0
2018-Feb-08 01:30N 29°41' W 093°44'  
Track history (hours):
 
Tides and Currents Weather Stations Pressure Air Temp Water Temp Dewpoint Dewpoint Depression Visibility Wind Speed Wind Dir Waves Ship Positions

Brook Danos

Owner: Lafourche Tugs Inc., Raceland, LA. More information available from US FCC via Universal Licensing System and Coast Guard Vessel Documentation Center.

Last reported at 2018-Feb-18 01:30 UTC. Time now 2018-Feb-18 01:46 UTC.
Position N 29°41' W 093°44'.

Length 27 m; draft 2.6 m.

Type: Other ship. MMSI: 367081970.

Date/timePositionNaut miles runAvg speedWind from/ knotsBaromVisibWave heightAir tempDewpointWater temp
2018-Feb-18 01:30N 29°41' W 093°44'0 0.0
2018-Feb-18 00:59N 29°41' W 093°44'0 0.0
2018-Feb-18 00:30N 29°41' W 093°44'0 0.0
2018-Feb-18 00:00N 29°41' W 093°44'0 0.0
2018-Feb-17 23:30N 29°41' W 093°44'0 0.0
2018-Feb-17 23:00N 29°41' W 093°44'0 0.0
2018-Feb-17 22:30N 29°41' W 093°44'1 1.6
2018-Feb-17 22:00N 29°41' W 093°43'2 3.9
2018-Feb-17 21:30N 29°42' W 093°41'0 0.0
2018-Feb-17 21:00N 29°42' W 093°41'0 0.0
2018-Feb-17 20:30N 29°42' W 093°41'2 4.6
2018-Feb-17 20:00N 29°41' W 093°43'0 0.0
2018-Feb-17 19:30N 29°41' W 093°43'1 1.7
2018-Feb-17 18:59N 29°41' W 093°44'3 5.7
2018-Feb-17 18:30N 29°42' W 093°41'0 0.0
2018-Feb-17 18:00N 29°42' W 093°41'3 5.6
2018-Feb-17 17:30N 29°41' W 093°44'0 0.0
2018-Feb-17 17:00N 29°41' W 093°44'0 0.0
2018-Feb-17 16:30N 29°41' W 093°44'0 0.0
2018-Feb-17 16:00N 29°41' W 093°44'0 0.0
2018-Feb-17 15:30N 29°41' W 093°44'1 1.7
2018-Feb-17 15:00N 29°41' W 093°43'2 3.2
2018-Feb-17 14:30N 29°41' W 093°45'1 1.8
2018-Feb-17 14:00N 29°41' W 093°44'0 0.0
2018-Feb-17 13:30N 29°41' W 093°44'0 0.0
2018-Feb-17 13:00N 29°41' W 093°44'0 0.0
2018-Feb-17 12:30N 29°41' W 093°44'0 0.0
2018-Feb-17 12:00N 29°41' W 093°44'0 0.0
2018-Feb-17 11:30N 29°41' W 093°44'0 0.0
2018-Feb-17 11:00N 29°41' W 093°44'0 0.0
2018-Feb-17 10:30N 29°41' W 093°44'0 0.0
2018-Feb-17 10:00N 29°41' W 093°44'0 0.0
2018-Feb-17 09:30N 29°41' W 093°44'0 0.0
2018-Feb-17 09:00N 29°41' W 093°44'0 0.0
2018-Feb-17 08:30N 29°41' W 093°44'0 0.0
2018-Feb-17 08:00N 29°41' W 093°44'0 0.0
2018-Feb-17 07:30N 29°41' W 093°44'0 0.0
2018-Feb-17 07:00N 29°41' W 093°44'0 0.0
2018-Feb-17 06:30N 29°41' W 093°44'0 0.0
2018-Feb-17 06:00N 29°41' W 093°44'0 0.0
2018-Feb-17 05:30N 29°41' W 093°44'0 0.0
2018-Feb-17 05:00N 29°41' W 093°44'0 0.0
2018-Feb-17 04:30N 29°41' W 093°44'0 0.0
2018-Feb-17 03:59N 29°41' W 093°44'0 0.0
2018-Feb-17 03:30N 29°41' W 093°44'0 0.0
2018-Feb-17 03:00N 29°41' W 093°44'0 0.0
2018-Feb-17 02:30N 29°41' W 093°44'4 7.3
2018-Feb-17 02:00N 29°39' W 093°47'3 6.3
2018-Feb-17 01:30N 29°41' W 093°50'5 9.2
2018-Feb-17 01:00N 29°45' W 093°53'1 1.4
2018-Feb-17 00:30N 29°46' W 093°53'0 0.0
2018-Feb-17 00:00N 29°46' W 093°53'2 3.2
2018-Feb-16 23:30N 29°44' W 093°53'510.0
2018-Feb-16 23:00N 29°40' W 093°50'3 6.8
2018-Feb-16 22:30N 29°40' W 093°46'4 8.5
2018-Feb-16 22:00N 29°42' W 093°41'0 1.0
2018-Feb-16 21:30N 29°42' W 093°41'0 0.0
2018-Feb-16 21:00N 29°42' W 093°41'0 0.0
2018-Feb-16 20:30N 29°42' W 093°41'0 0.0
2018-Feb-16 20:00N 29°42' W 093°41'0 0.0
2018-Feb-16 19:30N 29°42' W 093°41'3 5.6
2018-Feb-16 19:00N 29°41' W 093°44'0 0.0
2018-Feb-16 18:31N 29°41' W 093°44'2 3.6
2018-Feb-16 18:00N 29°42' W 093°42'1 1.9
2018-Feb-16 17:30N 29°42' W 093°41'0 0.0
2018-Feb-16 17:00N 29°42' W 093°41'0 0.1
2018-Feb-16 16:29N 29°42' W 093°41'0 0.1
2018-Feb-16 16:00N 29°42' W 093°41'3 5.6
2018-Feb-16 15:30N 29°41' W 093°44'1 1.7
2018-Feb-16 15:00N 29°41' W 093°45'1 1.9
2018-Feb-16 14:30N 29°41' W 093°44'4 7.5
2018-Feb-16 13:58N 29°39' W 093°48'3 7.5
2018-Feb-16 13:30N 29°41' W 093°50'5 9.9
2018-Feb-16 13:00N 29°46' W 093°53'0 0.8
2018-Feb-16 12:30N 29°46' W 093°53'0 0.0
2018-Feb-16 12:00N 29°46' W 093°53'2 4.2
2018-Feb-16 11:30N 29°44' W 093°52'4 8.1
2018-Feb-16 11:00N 29°40' W 093°50'3 5.7
2018-Feb-16 10:30N 29°39' W 093°47'3 7.0
2018-Feb-16 10:00N 29°41' W 093°44'0 0.0
2018-Feb-16 09:30N 29°41' W 093°44'0 0.0
2018-Feb-16 08:59N 29°41' W 093°44'0 0.0
2018-Feb-16 08:30N 29°41' W 093°44'0 0.0
2018-Feb-16 08:00N 29°41' W 093°44'0 0.0
2018-Feb-16 07:30N 29°41' W 093°44'0 0.0
2018-Feb-16 06:59N 29°41' W 093°44'0 0.0
2018-Feb-16 06:25N 29°41' W 093°44'0 0.0
2018-Feb-16 06:01N 29°41' W 093°44'0 0.0
2018-Feb-16 05:30N 29°41' W 093°44'0 0.0
2018-Feb-16 05:00N 29°41' W 093°44'0 0.0
2018-Feb-16 04:30N 29°41' W 093°44'0 0.0
2018-Feb-16 04:00N 29°41' W 093°44'0 0.0
2018-Feb-16 03:30N 29°41' W 093°44'0 0.0
2018-Feb-16 03:00N 29°41' W 093°44'0 0.0
2018-Feb-16 02:30N 29°41' W 093°44'0 0.0
2018-Feb-16 02:00N 29°41' W 093°44'0 0.0
2018-Feb-16 01:26N 29°41' W 093°44'0 0.0
2018-Feb-16 00:58N 29°41' W 093°44'0 0.0
2018-Feb-16 00:30N 29°41' W 093°44'0 0.0
2018-Feb-16 00:00N 29°41' W 093°44'0 0.0
2018-Feb-15 23:30N 29°41' W 093°44'0 0.0
2018-Feb-15 23:00N 29°41' W 093°44'0 0.0
2018-Feb-15 22:28N 29°41' W 093°44'0 0.0
2018-Feb-15 22:00N 29°41' W 093°44'0 0.0
2018-Feb-15 21:30N 29°41' W 093°44'3 5.5
2018-Feb-15 21:00N 29°42' W 093°41'0 0.0
2018-Feb-15 20:29N 29°42' W 093°41'0 0.0
2018-Feb-15 20:00N 29°42' W 093°41'5 5.5
2018-Feb-15 19:11N 29°38' W 093°40'0 0.3
2018-Feb-15 19:00N 29°38' W 093°40'3 6.9
2018-Feb-15 18:30N 29°40' W 093°43'1 2.9
2018-Feb-15 18:00N 29°41' W 093°44'0 0.7
2018-Feb-15 17:30N 29°41' W 093°44'0 0.0
2018-Feb-15 17:00N 29°41' W 093°44'1 1.8
2018-Feb-15 16:30N 29°41' W 093°45'0 0.1
2018-Feb-15 16:00N 29°41' W 093°45'1 2.0
2018-Feb-15 15:30N 29°41' W 093°44'1 2.0
2018-Feb-15 15:00N 29°41' W 093°45'1 1.4
2018-Feb-15 14:30N 29°41' W 093°44'3 5.9
2018-Feb-15 14:00N 29°42' W 093°41'3 5.1
2018-Feb-15 13:30N 29°41' W 093°44'0 0.4
2018-Feb-15 13:00N 29°41' W 093°44'0 0.0
2018-Feb-15 12:30N 29°41' W 093°44'0 0.0
2018-Feb-15 12:00N 29°41' W 093°44'0 0.0
2018-Feb-15 11:30N 29°41' W 093°44'0 0.0
2018-Feb-15 11:00N 29°41' W 093°44'0 0.0
2018-Feb-15 10:30N 29°41' W 093°44'0 0.0
2018-Feb-15 10:00N 29°41' W 093°44'0 0.0
2018-Feb-15 09:27N 29°41' W 093°44'0 0.0
2018-Feb-15 09:00N 29°41' W 093°44'0 0.0
2018-Feb-15 08:30N 29°41' W 093°44'0 0.0
2018-Feb-15 08:00N 29°41' W 093°44'0 0.0
2018-Feb-15 07:30N 29°41' W 093°44'0 0.0
2018-Feb-15 07:00N 29°41' W 093°44'0 0.0
2018-Feb-15 06:30N 29°41' W 093°44'0 0.0
2018-Feb-15 06:00N 29°41' W 093°44'0 0.0
2018-Feb-15 05:30N 29°41' W 093°44'0 0.0
2018-Feb-15 05:00N 29°41' W 093°44'0 0.0
2018-Feb-15 04:30N 29°41' W 093°44'0 0.0
2018-Feb-15 04:00N 29°41' W 093°44'0 0.0
2018-Feb-15 03:30N 29°41' W 093°44'0 0.0
2018-Feb-15 03:00N 29°41' W 093°44'1 1.8
2018-Feb-15 02:30N 29°41' W 093°45'0 0.0
2018-Feb-15 02:00N 29°41' W 093°45'0 0.0
2018-Feb-15 01:30N 29°41' W 093°45'1 1.8
2018-Feb-15 01:00N 29°41' W 093°44'0 0.0
2018-Feb-15 00:30N 29°41' W 093°44'0 0.9
2018-Feb-15 00:00N 29°41' W 093°44'1 1.5
2018-Feb-14 23:30N 29°41' W 093°43'2 4.8
2018-Feb-14 23:00N 29°42' W 093°41'0 0.0
2018-Feb-14 22:30N 29°42' W 093°41'0 0.0
2018-Feb-14 21:59N 29°42' W 093°41'0 0.0
2018-Feb-14 21:30N 29°42' W 093°41'0 0.0
2018-Feb-14 21:00N 29°42' W 093°41'0 0.0
2018-Feb-14 20:30N 29°42' W 093°41'2 3.7
2018-Feb-14 20:00N 29°42' W 093°43'1 1.9
2018-Feb-14 19:30N 29°41' W 093°44'4 7.3
2018-Feb-14 19:00N 29°39' W 093°47'3 6.8
2018-Feb-14 18:30N 29°42' W 093°50'5 9.7
2018-Feb-14 18:00N 29°46' W 093°53'0 0.5
2018-Feb-14 17:30N 29°46' W 093°53'0 0.0
2018-Feb-14 17:00N 29°46' W 093°53'0 0.0
2018-Feb-14 16:30N 29°46' W 093°53'1 1.5
2018-Feb-14 16:00N 29°45' W 093°53'3 6.7
2018-Feb-14 15:30N 29°42' W 093°51'3 6.5
2018-Feb-14 15:00N 29°39' W 093°50'3 6.4
2018-Feb-14 14:30N 29°40' W 093°46'2 3.5
2018-Feb-14 14:00N 29°41' W 093°45'1 1.8
2018-Feb-14 13:30N 29°40' W 093°45'4 8.2
2018-Feb-14 13:00N 29°39' W 093°50'611.1
2018-Feb-14 12:30N 29°44' W 093°52'2 4.8
2018-Feb-14 12:00N 29°46' W 093°53'1 1.9
2018-Feb-14 11:31N 29°45' W 093°53'4 7.7
2018-Feb-14 11:00N 29°42' W 093°51'4 7.8
2018-Feb-14 10:30N 29°38' W 093°49'5 9.6
2018-Feb-14 10:00N 29°41' W 093°44'1 1.0
2018-Feb-14 09:30N 29°41' W 093°44'0 0.0
2018-Feb-14 09:00N 29°41' W 093°44'0 0.0
2018-Feb-14 08:30N 29°41' W 093°44'0 0.0
2018-Feb-14 08:00N 29°41' W 093°44'0 0.0
2018-Feb-14 07:30N 29°41' W 093°44'0 0.0
2018-Feb-14 06:54N 29°41' W 093°44'0 0.0
2018-Feb-14 06:30N 29°41' W 093°44'0 0.0
2018-Feb-14 06:00N 29°41' W 093°44'0 0.0
2018-Feb-14 05:30N 29°41' W 093°44'1 1.8
2018-Feb-14 05:00N 29°41' W 093°45'1 1.9
2018-Feb-14 04:30N 29°41' W 093°44'0 0.0
2018-Feb-14 04:00N 29°41' W 093°44'0 0.0
2018-Feb-14 03:30N 29°41' W 093°44'0 0.0
2018-Feb-14 03:00N 29°41' W 093°44'0 0.0
2018-Feb-14 02:30N 29°41' W 093°44'1 1.8
2018-Feb-14 02:00N 29°41' W 093°45'1 1.7
2018-Feb-14 01:30N 29°41' W 093°44'4 8.9
2018-Feb-14 01:00N 29°39' W 093°48'3 6.9
2018-Feb-14 00:30N 29°42' W 093°51'4 8.7
2018-Feb-14 00:00N 29°45' W 093°53'1 1.2
2018-Feb-13 23:30N 29°46' W 093°53'0 0.0
2018-Feb-13 23:00N 29°46' W 093°53'0 0.0
2018-Feb-13 22:30N 29°46' W 093°53'0 0.0
2018-Feb-13 22:00N 29°46' W 093°53'0 0.0
2018-Feb-13 21:30N 29°46' W 093°53'4 7.3
2018-Feb-13 21:00N 29°43' W 093°51'4 8.8
2018-Feb-13 20:30N 29°39' W 093°49'5 9.4
2018-Feb-13 20:00N 29°41' W 093°44'1 1.6
2018-Feb-13 19:30N 29°41' W 093°45'1 1.6
2018-Feb-13 19:00N 29°41' W 093°44'0 0.0
2018-Feb-13 18:30N 29°41' W 093°44'0 0.0
2018-Feb-13 18:00N 29°41' W 093°44'0 0.0
2018-Feb-13 17:30N 29°41' W 093°44'3 5.5
2018-Feb-13 17:00N 29°42' W 093°41'0 0.1
2018-Feb-13 16:30N 29°42' W 093°41'1 2.1
2018-Feb-13 16:01N 29°42' W 093°42'0 0.8
2018-Feb-13 15:30N 29°41' W 093°42'1 2.5
2018-Feb-13 15:00N 29°42' W 093°41'4 8.1
2018-Feb-13 14:30N 29°38' W 093°40'1 1.1
2018-Feb-13 14:00N 29°38' W 093°41'4 8.9
2018-Feb-13 13:30N 29°41' W 093°44'1 1.2
2018-Feb-13 13:00N 29°41' W 093°45'1 1.9
2018-Feb-13 12:30N 29°41' W 093°44'0 0.0
2018-Feb-13 12:00N 29°41' W 093°44'0 0.0
2018-Feb-13 11:30N 29°41' W 093°44'0 0.0
2018-Feb-13 11:00N 29°41' W 093°44'0 0.0
2018-Feb-13 10:30N 29°41' W 093°44'0 0.0
2018-Feb-13 10:01N 29°41' W 093°44'0 0.0
2018-Feb-13 09:30N 29°41' W 093°44'0 0.0
2018-Feb-13 09:00N 29°41' W 093°44'0 0.0
2018-Feb-13 08:30N 29°41' W 093°44'0 0.0
2018-Feb-13 08:00N 29°41' W 093°44'0 0.0
2018-Feb-13 07:30N 29°41' W 093°44'0 0.0
2018-Feb-13 07:00N 29°41' W 093°44'0 0.0
2018-Feb-13 06:30N 29°41' W 093°44'0 0.0
2018-Feb-13 06:00N 29°41' W 093°44'0 0.0
2018-Feb-13 05:30N 29°41' W 093°44'0 0.0
2018-Feb-13 05:00N 29°41' W 093°44'0 0.0
2018-Feb-13 04:30N 29°41' W 093°44'0 0.0
2018-Feb-13 04:00N 29°41' W 093°44'0 0.0
2018-Feb-13 03:30N 29°41' W 093°44'0 0.0
2018-Feb-13 03:00N 29°41' W 093°44'0 0.0
2018-Feb-13 02:30N 29°41' W 093°44'0 0.0
2018-Feb-13 02:00N 29°41' W 093°44'0 0.0
2018-Feb-13 01:30N 29°41' W 093°44'0 0.5
2018-Feb-13 00:59N 29°41' W 093°44'1 2.8
2018-Feb-13 00:30N 29°42' W 093°42'2 3.3
2018-Feb-13 00:00N 29°41' W 093°44'0 0.0
2018-Feb-12 23:30N 29°41' W 093°44'0 0.0
2018-Feb-12 23:01N 29°41' W 093°44'0 0.0
2018-Feb-12 22:30N 29°41' W 093°44'0 0.0
2018-Feb-12 22:00N 29°41' W 093°44'1 1.8
2018-Feb-12 21:30N 29°41' W 093°45'1 1.8
2018-Feb-12 21:01N 29°41' W 093°44'0 0.0
2018-Feb-12 20:31N 29°41' W 093°44'0 0.0
2018-Feb-12 20:00N 29°41' W 093°44'0 0.0
2018-Feb-12 19:31N 29°41' W 093°44'0 0.0
2018-Feb-12 19:00N 29°41' W 093°44'0 0.0
2018-Feb-12 18:30N 29°41' W 093°44'0 0.0
2018-Feb-12 18:00N 29°41' W 093°44'0 0.0
2018-Feb-12 17:31N 29°41' W 093°44'0 0.0
2018-Feb-12 16:59N 29°41' W 093°44'1 1.9
2018-Feb-12 16:31N 29°41' W 093°45'4 7.3
2018-Feb-12 16:00N 29°42' W 093°41'3 6.9
2018-Feb-12 15:30N 29°39' W 093°41'1 1.1
2018-Feb-12 15:00N 29°39' W 093°41'3 6.0
2018-Feb-12 14:30N 29°42' W 093°41'0 0.0
2018-Feb-12 14:00N 29°42' W 093°41'2 3.4
2018-Feb-12 13:30N 29°41' W 093°43'2 3.0
2018-Feb-12 12:57N 29°42' W 093°41'2 2.9
2018-Feb-12 12:23N 29°41' W 093°43'1 3.3
2018-Feb-12 12:00N 29°41' W 093°44'3 5.9
2018-Feb-12 11:30N 29°42' W 093°41'2 4.0
2018-Feb-12 10:59N 29°41' W 093°43'1 1.3
2018-Feb-12 10:30N 29°42' W 093°42'0 0.5
2018-Feb-12 10:00N 29°42' W 093°43'1 2.2
2018-Feb-12 09:30N 29°41' W 093°44'0 0.0
2018-Feb-12 09:00N 29°41' W 093°44'0 0.0
2018-Feb-12 08:30N 29°41' W 093°44'0 0.0
2018-Feb-12 08:00N 29°41' W 093°44'0 0.0
2018-Feb-12 07:27N 29°41' W 093°44'0 0.0
2018-Feb-12 07:00N 29°41' W 093°44'0 0.0
2018-Feb-12 06:31N 29°41' W 093°44'0 0.0
2018-Feb-12 06:00N 29°41' W 093°44'0 0.1
2018-Feb-12 05:30N 29°41' W 093°44'0 0.1
2018-Feb-12 04:59N 29°41' W 093°44'0 0.0
2018-Feb-12 04:29N 29°41' W 093°44'0 0.0
2018-Feb-12 04:00N 29°41' W 093°44'0 0.0
2018-Feb-12 03:29N 29°41' W 093°44'0 0.0
2018-Feb-12 02:58N 29°41' W 093°44'0 0.0
2018-Feb-12 02:27N 29°41' W 093°44'0 0.0
2018-Feb-12 01:58N 29°41' W 093°44'0 0.0
2018-Feb-12 01:30N 29°41' W 093°44'0 0.0
2018-Feb-12 01:00N 29°41' W 093°44'0 0.0
2018-Feb-12 00:30N 29°41' W 093°44'0 0.0
2018-Feb-12 00:00N 29°41' W 093°44'0 0.0
2018-Feb-11 23:26N 29°41' W 093°44'1 1.5
2018-Feb-11 22:58N 29°41' W 093°45'4 9.0
2018-Feb-11 22:30N 29°39' W 093°49'4 9.0
2018-Feb-11 22:00N 29°43' W 093°51'4 7.2
2018-Feb-11 21:30N 29°46' W 093°53'0 0.0
2018-Feb-11 21:00N 29°46' W 093°53'0 0.0
2018-Feb-11 20:26N 29°46' W 093°53'0 0.0
2018-Feb-11 20:00N 29°46' W 093°53'3 6.5
2018-Feb-11 19:29N 29°43' W 093°51'4 8.4
2018-Feb-11 19:00N 29°39' W 093°50'4 8.6
2018-Feb-11 18:30N 29°40' W 093°45'1 2.4
2018-Feb-11 17:59N 29°41' W 093°44'0 0.0
2018-Feb-11 17:20N 29°41' W 093°44'0 1.2
2018-Feb-11 16:59N 29°41' W 093°44'0 0.9
2018-Feb-11 16:29N 29°41' W 093°44'0 0.0
2018-Feb-11 15:55N 29°41' W 093°44'0 0.1
2018-Feb-11 15:26N 29°41' W 093°44'0 0.0
2018-Feb-11 14:58N 29°41' W 093°44'0 0.0
2018-Feb-11 14:27N 29°41' W 093°44'0 0.0
2018-Feb-11 14:00N 29°41' W 093°44'0 0.0
2018-Feb-11 13:30N 29°41' W 093°44'1 1.8
2018-Feb-11 13:00N 29°41' W 093°45'0 0.0
2018-Feb-11 12:30N 29°41' W 093°45'0 0.0
2018-Feb-11 12:00N 29°41' W 093°45'0 0.0
2018-Feb-11 11:30N 29°41' W 093°45'0 0.0
2018-Feb-11 11:00N 29°41' W 093°45'0 0.0
2018-Feb-11 10:28N 29°41' W 093°45'0 0.0
2018-Feb-11 09:58N 29°41' W 093°45'0 0.0
2018-Feb-11 09:30N 29°41' W 093°45'0 0.0
2018-Feb-11 08:49N 29°41' W 093°45'0 0.0
2018-Feb-11 08:30N 29°41' W 093°45'0 0.0
2018-Feb-11 07:49N 29°41' W 093°45'0 0.0
2018-Feb-11 07:30N 29°41' W 093°45'0 0.0
2018-Feb-11 06:59N 29°41' W 093°45'0 0.0
2018-Feb-11 06:30N 29°41' W 093°45'0 0.0
2018-Feb-11 06:00N 29°41' W 093°45'0 0.0
2018-Feb-11 05:30N 29°41' W 093°45'0 0.0
2018-Feb-11 05:00N 29°41' W 093°45'1 2.0
2018-Feb-11 04:30N 29°41' W 093°44'0 0.0
2018-Feb-11 03:58N 29°41' W 093°44'0 0.0
2018-Feb-11 03:30N 29°41' W 093°44'0 0.0
2018-Feb-11 03:00N 29°41' W 093°44'0 0.0
2018-Feb-11 02:30N 29°41' W 093°44'0 0.0
2018-Feb-11 02:00N 29°41' W 093°44'0 0.0
2018-Feb-11 01:30N 29°41' W 093°44'1 1.7
2018-Feb-11 01:00N 29°41' W 093°45'1 1.5
2018-Feb-11 00:30N 29°41' W 093°44'0 0.0
2018-Feb-11 00:00N 29°41' W 093°44'0 0.0
2018-Feb-10 23:30N 29°41' W 093°44'0 0.0
2018-Feb-10 22:59N 29°41' W 093°44'0 0.0
2018-Feb-10 22:30N 29°41' W 093°44'0 0.0
2018-Feb-10 22:00N 29°41' W 093°44'0 0.6
2018-Feb-10 21:30N 29°41' W 093°44'0 0.6
2018-Feb-10 21:00N 29°41' W 093°44'0 0.0
2018-Feb-10 20:30N 29°41' W 093°44'0 0.0
2018-Feb-10 20:00N 29°41' W 093°44'0 0.0
2018-Feb-10 19:30N 29°41' W 093°44'0 0.1
2018-Feb-10 19:00N 29°41' W 093°44'0 0.1
2018-Feb-10 18:30N 29°41' W 093°44'0 0.1
2018-Feb-10 18:00N 29°41' W 093°44'3 5.4
2018-Feb-10 17:30N 29°42' W 093°41'0 0.0
2018-Feb-10 17:00N 29°42' W 093°41'0 0.0
2018-Feb-10 16:30N 29°42' W 093°41'3 6.0
2018-Feb-10 16:00N 29°41' W 093°44'3 5.9
2018-Feb-10 15:29N 29°39' W 093°47'3 5.8
2018-Feb-10 15:00N 29°41' W 093°50'510.0
2018-Feb-10 14:30N 29°45' W 093°53'1 2.0
2018-Feb-10 14:00N 29°46' W 093°53'1 2.3
2018-Feb-10 13:29N 29°45' W 093°53'4 7.6
2018-Feb-10 13:00N 29°42' W 093°50'3 6.8
2018-Feb-10 12:30N 29°38' W 093°49'4 8.7
2018-Feb-10 12:00N 29°41' W 093°45'0 0.1
2018-Feb-10 11:30N 29°41' W 093°45'0 0.0
2018-Feb-10 10:58N 29°41' W 093°45'0 0.0
2018-Feb-10 10:23N 29°41' W 093°45'0 0.0
2018-Feb-10 10:00N 29°41' W 093°45'0 0.0
2018-Feb-10 09:30N 29°41' W 093°45'0 0.0
2018-Feb-10 09:00N 29°41' W 093°45'0 0.0
2018-Feb-10 08:30N 29°41' W 093°45'0 0.0
2018-Feb-10 08:00N 29°41' W 093°45'0 0.0
2018-Feb-10 07:30N 29°41' W 093°45'0 0.0
2018-Feb-10 07:00N 29°41' W 093°45'0 0.0
2018-Feb-10 06:30N 29°41' W 093°45'0 0.0
2018-Feb-10 06:00N 29°41' W 093°45'0 0.0
2018-Feb-10 05:30N 29°41' W 093°45'0 0.0
2018-Feb-10 05:00N 29°41' W 093°45'0 0.0
2018-Feb-10 04:28N 29°41' W 093°45'0 0.0
2018-Feb-10 04:00N 29°41' W 093°45'0 0.0
2018-Feb-10 03:30N 29°41' W 093°45'0 0.0
2018-Feb-10 01:51N 29°41' W 093°45'0 0.0
2018-Feb-10 01:27N 29°41' W 093°45'0 0.0
2018-Feb-10 00:58N 29°41' W 093°45'0 0.0
2018-Feb-10 00:25N 29°41' W 093°45'1 2.2
2018-Feb-10 00:00N 29°41' W 093°44'0 0.0
2018-Feb-09 23:30N 29°41' W 093°44'0 0.0
2018-Feb-09 23:00N 29°41' W 093°44'0 0.0
2018-Feb-09 22:45N 29°41' W 093°44'0 0.0
2018-Feb-09 20:30N 29°41' W 093°44'0 0.0
2018-Feb-09 20:00N 29°41' W 093°44'0 0.0
2018-Feb-09 19:00N 29°41' W 093°44'0 0.1
2018-Feb-09 18:00N 29°41' W 093°44'0 0.2
2018-Feb-09 17:30N 29°41' W 093°44'1 0.4
2018-Feb-09 15:00N 29°41' W 093°45'1 2.0
2018-Feb-09 14:30N 29°41' W 093°44'5 5.3
2018-Feb-09 13:30N 29°41' W 093°50'510.4
2018-Feb-09 13:00N 29°45' W 093°53'1 1.5
2018-Feb-09 12:30N 29°46' W 093°53'0 0.0
2018-Feb-09 12:00N 29°46' W 093°53'1 0.8
2018-Feb-09 10:30N 29°45' W 093°53'7 7.3
2018-Feb-09 09:30N 29°38' W 093°49'5 9.5
2018-Feb-09 09:00N 29°41' W 093°44'1 1.3
2018-Feb-09 08:30N 29°41' W 093°45'1 0.6
2018-Feb-09 07:00N 29°41' W 093°44'0 0.0
2018-Feb-09 06:00N 29°41' W 093°44'0 0.0
2018-Feb-09 05:30N 29°41' W 093°44'0 0.0
2018-Feb-09 04:30N 29°41' W 093°44'0 0.0
2018-Feb-09 03:30N 29°41' W 093°44'0 0.0
2018-Feb-09 03:00N 29°41' W 093°44'0 0.0
2018-Feb-09 02:30N 29°41' W 093°44'1 1.8
2018-Feb-09 02:00N 29°41' W 093°45'2 3.3
2018-Feb-09 01:30N 29°41' W 093°43'0 0.0
2018-Feb-08 18:30N 29°41' W 093°43'2 3.5
2018-Feb-08 18:00N 29°42' W 093°41'3 2.8
2018-Feb-08 17:00N 29°41' W 093°44'1 0.9
2018-Feb-08 16:00N 29°41' W 093°45'0 0.0
2018-Feb-08 15:30N 29°41' W 093°45'0 0.0
2018-Feb-08 15:00N 29°41' W 093°45'1 0.3
2018-Feb-08 11:30N 29°41' W 093°44'0 0.0
2018-Feb-08 10:00N 29°41' W 093°44'0 0.0
2018-Feb-08 09:30N 29°41' W 093°44'1 0.9
2018-Feb-08 08:30N 29°41' W 093°45'1 1.8
2018-Feb-08 08:00N 29°41' W 093°44'0 0.0
2018-Feb-08 06:00N 29°41' W 093°44'0 0.0
2018-Feb-08 05:30N 29°41' W 093°44'0 0.0
2018-Feb-08 05:00N 29°41' W 093°44'0 0.0
2018-Feb-08 04:00N 29°41' W 093°44'0 0.0
2018-Feb-08 02:30N 29°41' W 093°44'0 0.0
2018-Feb-08 01:30N 29°41' W 093°44'  

Dump ship's entire track history